sensor_id;sensor_type;location;lat;lon;timestamp;temperature;humidity
10538;DHT22;5317;49.048;8.468;2023-12-14T00:01:54;12.40;90.40
10538;DHT22;5317;49.048;8.468;2023-12-14T00:04:21;12.50;90.40
10538;DHT22;5317;49.048;8.468;2023-12-14T00:06:47;12.50;90.30
10538;DHT22;5317;49.048;8.468;2023-12-14T00:09:15;12.40;90.40
10538;DHT22;5317;49.048;8.468;2023-12-14T00:11:41;12.40;90.40
10538;DHT22;5317;49.048;8.468;2023-12-14T00:14:08;12.40;90.40
10538;DHT22;5317;49.048;8.468;2023-12-14T00:16:38;12.40;90.90
10538;DHT22;5317;49.048;8.468;2023-12-14T00:19:07;12.30;90.60
10538;DHT22;5317;49.048;8.468;2023-12-14T00:21:34;12.30;90.60
10538;DHT22;5317;49.048;8.468;2023-12-14T00:24:00;12.30;90.70
10538;DHT22;5317;49.048;8.468;2023-12-14T00:26:27;12.20;90.80
10538;DHT22;5317;49.048;8.468;2023-12-14T00:28:54;12.30;90.80
10538;DHT22;5317;49.048;8.468;2023-12-14T00:31:21;12.20;90.70
10538;DHT22;5317;49.048;8.468;2023-12-14T00:33:48;12.30;90.80
10538;DHT22;5317;49.048;8.468;2023-12-14T00:36:19;12.30;90.80
10538;DHT22;5317;49.048;8.468;2023-12-14T00:38:46;12.30;90.80
10538;DHT22;5317;49.048;8.468;2023-12-14T00:41:13;12.30;90.80
10538;DHT22;5317;49.048;8.468;2023-12-14T00:43:40;12.20;90.80
10538;DHT22;5317;49.048;8.468;2023-12-14T00:46:07;12.20;90.80
10538;DHT22;5317;49.048;8.468;2023-12-14T00:48:34;12.20;90.80
10538;DHT22;5317;49.048;8.468;2023-12-14T00:51:03;12.20;90.80
10538;DHT22;5317;49.048;8.468;2023-12-14T00:53:33;12.20;90.80
10538;DHT22;5317;49.048;8.468;2023-12-14T00:56:00;12.20;90.80
10538;DHT22;5317;49.048;8.468;2023-12-14T00:58:27;12.20;90.80
10538;DHT22;5317;49.048;8.468;2023-12-14T01:00:53;12.20;90.90
10538;DHT22;5317;49.048;8.468;2023-12-14T01:06:45;12.20;91.00
10538;DHT22;5317;49.048;8.468;2023-12-14T01:09:14;12.10;91.00
10538;DHT22;5317;49.048;8.468;2023-12-14T01:11:40;12.10;91.30
10538;DHT22;5317;49.048;8.468;2023-12-14T01:14:07;12.10;91.00
10538;DHT22;5317;49.048;8.468;2023-12-14T01:16:34;12.10;91.10
10538;DHT22;5317;49.048;8.468;2023-12-14T01:19:01;12.10;91.30
10538;DHT22;5317;49.048;8.468;2023-12-14T01:21:27;12.10;91.20
10538;DHT22;5317;49.048;8.468;2023-12-14T01:23:54;12.10;91.30
10538;DHT22;5317;49.048;8.468;2023-12-14T01:26:22;12.10;91.30
10538;DHT22;5317;49.048;8.468;2023-12-14T01:28:49;12.00;91.40
10538;DHT22;5317;49.048;8.468;2023-12-14T01:31:16;12.10;91.40
10538;DHT22;5317;49.048;8.468;2023-12-14T01:33:43;12.10;91.40
10538;DHT22;5317;49.048;8.468;2023-12-14T01:36:11;12.20;91.30
10538;DHT22;5317;49.048;8.468;2023-12-14T01:38:38;12.20;91.30
10538;DHT22;5317;49.048;8.468;2023-12-14T01:41:05;12.10;91.40
10538;DHT22;5317;49.048;8.468;2023-12-14T01:43:33;12.10;91.40
10538;DHT22;5317;49.048;8.468;2023-12-14T01:46:00;12.10;91.40
10538;DHT22;5317;49.048;8.468;2023-12-14T01:48:26;12.10;91.40
10538;DHT22;5317;49.048;8.468;2023-12-14T01:50:53;12.10;91.80
10538;DHT22;5317;49.048;8.468;2023-12-14T01:53:21;12.10;91.50
10538;DHT22;5317;49.048;8.468;2023-12-14T01:55:48;12.00;91.60
10538;DHT22;5317;49.048;8.468;2023-12-14T01:58:14;12.00;91.70
10538;DHT22;5317;49.048;8.468;2023-12-14T02:00:47;12.00;91.80
10538;DHT22;5317;49.048;8.468;2023-12-14T02:03:16;11.90;91.80
10538;DHT22;5317;49.048;8.468;2023-12-14T02:05:43;12.00;91.80
10538;DHT22;5317;49.048;8.468;2023-12-14T02:08:10;12.00;91.90
10538;DHT22;5317;49.048;8.468;2023-12-14T02:10:37;12.00;91.80
10538;DHT22;5317;49.048;8.468;2023-12-14T02:13:03;12.10;91.80
10538;DHT22;5317;49.048;8.468;2023-12-14T02:15:30;12.10;91.80
10538;DHT22;5317;49.048;8.468;2023-12-14T02:17:58;12.10;91.80
10538;DHT22;5317;49.048;8.468;2023-12-14T02:20:25;12.10;91.70
10538;DHT22;5317;49.048;8.468;2023-12-14T02:22:54;12.10;91.70
10538;DHT22;5317;49.048;8.468;2023-12-14T02:25:22;12.20;91.80
10538;DHT22;5317;49.048;8.468;2023-12-14T02:27:50;12.20;91.70
10538;DHT22;5317;49.048;8.468;2023-12-14T02:30:17;12.30;91.70
10538;DHT22;5317;49.048;8.468;2023-12-14T02:32:44;12.30;91.60
10538;DHT22;5317;49.048;8.468;2023-12-14T02:35:11;12.30;91.50
10538;DHT22;5317;49.048;8.468;2023-12-14T02:37:38;12.40;91.50
10538;DHT22;5317;49.048;8.468;2023-12-14T02:40:08;12.30;91.40
10538;DHT22;5317;49.048;8.468;2023-12-14T02:42:35;12.20;91.60
10538;DHT22;5317;49.048;8.468;2023-12-14T02:45:03;12.10;91.90
10538;DHT22;5317;49.048;8.468;2023-12-14T02:47:30;12.10;92.00
10538;DHT22;5317;49.048;8.468;2023-12-14T02:49:57;12.20;92.00
10538;DHT22;5317;49.048;8.468;2023-12-14T02:52:24;12.20;91.90
10538;DHT22;5317;49.048;8.468;2023-12-14T02:54:50;12.30;91.90
10538;DHT22;5317;49.048;8.468;2023-12-14T02:57:19;12.20;91.70
10538;DHT22;5317;49.048;8.468;2023-12-14T02:59:45;12.20;91.80
10538;DHT22;5317;49.048;8.468;2023-12-14T03:02:12;12.20;91.90
10538;DHT22;5317;49.048;8.468;2023-12-14T03:04:39;12.20;92.00
10538;DHT22;5317;49.048;8.468;2023-12-14T03:07:06;12.10;92.00
10538;DHT22;5317;49.048;8.468;2023-12-14T03:09:33;12.20;92.00
10538;DHT22;5317;49.048;8.468;2023-12-14T03:12:00;12.10;92.00
10538;DHT22;5317;49.048;8.468;2023-12-14T03:14:32;12.20;92.00
10538;DHT22;5317;49.048;8.468;2023-12-14T03:16:59;12.20;92.00
10538;DHT22;5317;49.048;8.468;2023-12-14T03:19:26;12.20;92.00
10538;DHT22;5317;49.048;8.468;2023-12-14T03:21:53;12.20;92.00
10538;DHT22;5317;49.048;8.468;2023-12-14T03:24:20;12.10;92.00
10538;DHT22;5317;49.048;8.468;2023-12-14T03:26:47;12.10;92.20
10538;DHT22;5317;49.048;8.468;2023-12-14T03:29:14;12.20;92.10
10538;DHT22;5317;49.048;8.468;2023-12-14T03:31:42;12.20;92.00
10538;DHT22;5317;49.048;8.468;2023-12-14T03:34:08;12.20;92.00
10538;DHT22;5317;49.048;8.468;2023-12-14T03:36:35;12.20;92.50
10538;DHT22;5317;49.048;8.468;2023-12-14T03:39:02;12.20;92.00
10538;DHT22;5317;49.048;8.468;2023-12-14T03:41:29;12.30;92.10
10538;DHT22;5317;49.048;8.468;2023-12-14T03:43:56;12.30;92.10
10538;DHT22;5317;49.048;8.468;2023-12-14T03:46:22;12.30;92.10
10538;DHT22;5317;49.048;8.468;2023-12-14T03:48:50;12.20;92.00
10538;DHT22;5317;49.048;8.468;2023-12-14T03:51:18;12.20;92.00
10538;DHT22;5317;49.048;8.468;2023-12-14T03:53:45;12.20;92.00
10538;DHT22;5317;49.048;8.468;2023-12-14T03:56:12;12.20;92.20
10538;DHT22;5317;49.048;8.468;2023-12-14T03:58:42;12.20;92.30
10538;DHT22;5317;49.048;8.468;2023-12-14T04:01:16;12.10;92.40
10538;DHT22;5317;49.048;8.468;2023-12-14T04:03:43;12.20;92.40
10538;DHT22;5317;49.048;8.468;2023-12-14T04:06:11;12.20;92.60
10538;DHT22;5317;49.048;8.468;2023-12-14T04:08:38;12.30;92.20
10538;DHT22;5317;49.048;8.468;2023-12-14T04:11:05;12.30;92.10
10538;DHT22;5317;49.048;8.468;2023-12-14T04:13:32;12.40;92.10
10538;DHT22;5317;49.048;8.468;2023-12-14T04:15:59;12.50;92.00
10538;DHT22;5317;49.048;8.468;2023-12-14T04:18:26;12.50;91.90
10538;DHT22;5317;49.048;8.468;2023-12-14T04:20:53;12.50;91.90
10538;DHT22;5317;49.048;8.468;2023-12-14T04:23:21;12.50;91.90
10538;DHT22;5317;49.048;8.468;2023-12-14T04:25:48;12.50;91.80
10538;DHT22;5317;49.048;8.468;2023-12-14T04:28:15;12.50;91.90
10538;DHT22;5317;49.048;8.468;2023-12-14T04:30:42;12.60;91.90
10538;DHT22;5317;49.048;8.468;2023-12-14T04:33:08;12.60;91.80
10538;DHT22;5317;49.048;8.468;2023-12-14T04:35:35;12.60;91.70
10538;DHT22;5317;49.048;8.468;2023-12-14T04:38:02;12.70;91.70
10538;DHT22;5317;49.048;8.468;2023-12-14T04:40:30;12.70;91.70
10538;DHT22;5317;49.048;8.468;2023-12-14T04:42:58;12.60;91.60
10538;DHT22;5317;49.048;8.468;2023-12-14T04:45:25;12.70;91.60
10538;DHT22;5317;49.048;8.468;2023-12-14T04:47:52;12.70;91.60
10538;DHT22;5317;49.048;8.468;2023-12-14T04:50:19;12.70;91.60
10538;DHT22;5317;49.048;8.468;2023-12-14T04:52:46;12.70;91.50
10538;DHT22;5317;49.048;8.468;2023-12-14T04:55:13;12.70;91.50
10538;DHT22;5317;49.048;8.468;2023-12-14T04:57:41;12.80;91.50
10538;DHT22;5317;49.048;8.468;2023-12-14T05:00:09;12.80;91.50
10538;DHT22;5317;49.048;8.468;2023-12-14T05:02:36;12.80;91.50
10538;DHT22;5317;49.048;8.468;2023-12-14T05:05:03;12.80;91.40
10538;DHT22;5317;49.048;8.468;2023-12-14T05:07:30;12.80;91.50
10538;DHT22;5317;49.048;8.468;2023-12-14T05:09:57;12.90;91.50
10538;DHT22;5317;49.048;8.468;2023-12-14T05:12:24;12.80;91.40
10538;DHT22;5317;49.048;8.468;2023-12-14T05:14:53;12.90;91.50
10538;DHT22;5317;49.048;8.468;2023-12-14T05:17:20;12.80;91.40
10538;DHT22;5317;49.048;8.468;2023-12-14T05:19:47;12.80;91.40
10538;DHT22;5317;49.048;8.468;2023-12-14T05:22:14;12.90;91.50
10538;DHT22;5317;49.048;8.468;2023-12-14T05:24:41;12.90;91.40
10538;DHT22;5317;49.048;8.468;2023-12-14T05:27:07;12.90;91.40
10538;DHT22;5317;49.048;8.468;2023-12-14T05:29:34;12.80;91.40
10538;DHT22;5317;49.048;8.468;2023-12-14T05:32:03;12.90;91.50
10538;DHT22;5317;49.048;8.468;2023-12-14T05:34:29;12.90;91.50
10538;DHT22;5317;49.048;8.468;2023-12-14T05:36:56;12.90;91.40
10538;DHT22;5317;49.048;8.468;2023-12-14T05:39:23;12.90;91.40
10538;DHT22;5317;49.048;8.468;2023-12-14T05:41:50;12.90;91.40
10538;DHT22;5317;49.048;8.468;2023-12-14T05:44:17;12.90;91.40
10538;DHT22;5317;49.048;8.468;2023-12-14T05:46:43;12.80;91.40
10538;DHT22;5317;49.048;8.468;2023-12-14T05:49:11;12.80;91.40
10538;DHT22;5317;49.048;8.468;2023-12-14T05:51:38;12.80;91.50
10538;DHT22;5317;49.048;8.468;2023-12-14T05:54:05;12.80;91.50
10538;DHT22;5317;49.048;8.468;2023-12-14T05:56:32;12.80;91.50
10538;DHT22;5317;49.048;8.468;2023-12-14T05:58:59;12.80;91.50
10538;DHT22;5317;49.048;8.468;2023-12-14T06:01:26;12.80;91.50
10538;DHT22;5317;49.048;8.468;2023-12-14T06:03:52;12.80;91.50
10538;DHT22;5317;49.048;8.468;2023-12-14T06:06:21;12.80;91.50
10538;DHT22;5317;49.048;8.468;2023-12-14T06:08:48;12.80;91.60
10538;DHT22;5317;49.048;8.468;2023-12-14T06:11:15;12.70;91.70
10538;DHT22;5317;49.048;8.468;2023-12-14T06:13:42;12.60;91.80
10538;DHT22;5317;49.048;8.468;2023-12-14T06:16:08;12.50;92.20
10538;DHT22;5317;49.048;8.468;2023-12-14T06:18:39;12.40;92.10
10538;DHT22;5317;49.048;8.468;2023-12-14T06:21:07;12.40;92.10
10538;DHT22;5317;49.048;8.468;2023-12-14T06:23:36;12.40;92.10
10538;DHT22;5317;49.048;8.468;2023-12-14T06:26:03;12.30;92.20
10538;DHT22;5317;49.048;8.468;2023-12-14T06:28:30;12.30;92.30
10538;DHT22;5317;49.048;8.468;2023-12-14T06:30:57;12.40;92.30
10538;DHT22;5317;49.048;8.468;2023-12-14T06:33:24;12.40;92.30
10538;DHT22;5317;49.048;8.468;2023-12-14T06:35:50;12.50;92.20
10538;DHT22;5317;49.048;8.468;2023-12-14T06:38:17;12.50;92.20
10538;DHT22;5317;49.048;8.468;2023-12-14T06:40:45;12.60;92.10
10538;DHT22;5317;49.048;8.468;2023-12-14T06:43:12;12.60;92.00
10538;DHT22;5317;49.048;8.468;2023-12-14T06:45:39;12.60;91.90
10538;DHT22;5317;49.048;8.468;2023-12-14T06:48:06;12.60;91.80
10538;DHT22;5317;49.048;8.468;2023-12-14T06:50:33;12.70;91.80
10538;DHT22;5317;49.048;8.468;2023-12-14T06:52:59;12.70;91.80
10538;DHT22;5317;49.048;8.468;2023-12-14T06:55:29;12.70;91.80
10538;DHT22;5317;49.048;8.468;2023-12-14T06:57:57;12.70;91.70
10538;DHT22;5317;49.048;8.468;2023-12-14T07:00:24;12.70;91.70
10538;DHT22;5317;49.048;8.468;2023-12-14T07:02:51;12.70;92.10
10538;DHT22;5317;49.048;8.468;2023-12-14T07:05:18;12.70;91.70
10538;DHT22;5317;49.048;8.468;2023-12-14T07:07:44;12.80;91.70
10538;DHT22;5317;49.048;8.468;2023-12-14T07:10:11;12.80;91.60
10538;DHT22;5317;49.048;8.468;2023-12-14T07:12:38;12.80;91.70
10538;DHT22;5317;49.048;8.468;2023-12-14T07:15:07;12.80;91.70
10538;DHT22;5317;49.048;8.468;2023-12-14T07:17:34;12.80;91.70
10538;DHT22;5317;49.048;8.468;2023-12-14T07:20:01;12.80;91.60
10538;DHT22;5317;49.048;8.468;2023-12-14T07:22:28;12.80;91.60
10538;DHT22;5317;49.048;8.468;2023-12-14T07:24:55;12.80;91.60
10538;DHT22;5317;49.048;8.468;2023-12-14T07:27:22;12.80;91.60
10538;DHT22;5317;49.048;8.468;2023-12-14T07:29:48;12.70;91.90
10538;DHT22;5317;49.048;8.468;2023-12-14T07:32:17;12.80;91.60
10538;DHT22;5317;49.048;8.468;2023-12-14T07:34:43;12.80;91.50
10538;DHT22;5317;49.048;8.468;2023-12-14T07:37:11;12.80;91.60
10538;DHT22;5317;49.048;8.468;2023-12-14T07:39:38;12.80;91.60
10538;DHT22;5317;49.048;8.468;2023-12-14T07:42:05;12.80;91.60
10538;DHT22;5317;49.048;8.468;2023-12-14T07:44:32;12.80;91.70
10538;DHT22;5317;49.048;8.468;2023-12-14T07:47:01;12.70;91.70
10538;DHT22;5317;49.048;8.468;2023-12-14T07:49:29;12.70;91.70
10538;DHT22;5317;49.048;8.468;2023-12-14T07:51:56;12.70;91.70
10538;DHT22;5317;49.048;8.468;2023-12-14T07:54:22;12.70;91.70
10538;DHT22;5317;49.048;8.468;2023-12-14T07:56:52;12.70;91.80
10538;DHT22;5317;49.048;8.468;2023-12-14T07:59:19;12.70;91.80
10538;DHT22;5317;49.048;8.468;2023-12-14T08:01:46;12.70;91.90
10538;DHT22;5317;49.048;8.468;2023-12-14T08:04:13;12.70;91.80
10538;DHT22;5317;49.048;8.468;2023-12-14T08:06:41;12.70;91.90
10538;DHT22;5317;49.048;8.468;2023-12-14T08:09:08;12.70;92.00
10538;DHT22;5317;49.048;8.468;2023-12-14T08:11:35;12.70;91.90
10538;DHT22;5317;49.048;8.468;2023-12-14T08:14:02;12.70;91.90
10538;DHT22;5317;49.048;8.468;2023-12-14T08:16:29;12.80;92.00
10538;DHT22;5317;49.048;8.468;2023-12-14T08:18:56;12.80;92.00
10538;DHT22;5317;49.048;8.468;2023-12-14T08:21:23;12.80;91.90
10538;DHT22;5317;49.048;8.468;2023-12-14T08:23:52;12.90;92.00
10538;DHT22;5317;49.048;8.468;2023-12-14T08:26:19;12.90;91.90
10538;DHT22;5317;49.048;8.468;2023-12-14T08:28:46;12.90;91.90
10538;DHT22;5317;49.048;8.468;2023-12-14T08:31:13;12.90;91.90
10538;DHT22;5317;49.048;8.468;2023-12-14T08:33:41;12.80;91.90
10538;DHT22;5317;49.048;8.468;2023-12-14T08:36:08;12.80;92.00
10538;DHT22;5317;49.048;8.468;2023-12-14T08:38:35;12.80;92.10
10538;DHT22;5317;49.048;8.468;2023-12-14T08:41:03;12.80;92.00
10538;DHT22;5317;49.048;8.468;2023-12-14T08:43:30;12.80;92.00
10538;DHT22;5317;49.048;8.468;2023-12-14T08:45:57;12.80;92.10
10538;DHT22;5317;49.048;8.468;2023-12-14T08:48:24;12.80;92.10
10538;DHT22;5317;49.048;8.468;2023-12-14T08:50:53;12.80;92.10
10538;DHT22;5317;49.048;8.468;2023-12-14T08:53:20;12.80;92.10
10538;DHT22;5317;49.048;8.468;2023-12-14T08:55:47;12.80;92.10
10538;DHT22;5317;49.048;8.468;2023-12-14T08:58:15;12.90;92.40
10538;DHT22;5317;49.048;8.468;2023-12-14T09:00:42;12.90;92.10
10538;DHT22;5317;49.048;8.468;2023-12-14T09:03:09;13.00;92.00
10538;DHT22;5317;49.048;8.468;2023-12-14T09:05:36;13.00;91.90
10538;DHT22;5317;49.048;8.468;2023-12-14T09:08:07;12.90;92.00
10538;DHT22;5317;49.048;8.468;2023-12-14T09:10:34;12.80;92.00
10538;DHT22;5317;49.048;8.468;2023-12-14T09:13:01;12.80;92.20
10538;DHT22;5317;49.048;8.468;2023-12-14T09:15:31;12.70;92.30
10538;DHT22;5317;49.048;8.468;2023-12-14T09:17:58;12.70;92.30
10538;DHT22;5317;49.048;8.468;2023-12-14T09:20:25;12.70;92.30
10538;DHT22;5317;49.048;8.468;2023-12-14T09:22:52;12.70;92.30
10538;DHT22;5317;49.048;8.468;2023-12-14T09:25:19;12.70;92.30
10538;DHT22;5317;49.048;8.468;2023-12-14T09:27:46;12.60;92.50
10538;DHT22;5317;49.048;8.468;2023-12-14T09:30:13;12.60;92.60
10538;DHT22;5317;49.048;8.468;2023-12-14T09:32:44;12.50;92.70
10538;DHT22;5317;49.048;8.468;2023-12-14T09:35:11;12.60;92.80
10538;DHT22;5317;49.048;8.468;2023-12-14T09:37:38;12.70;92.70
10538;DHT22;5317;49.048;8.468;2023-12-14T09:40:07;12.70;92.60
10538;DHT22;5317;49.048;8.468;2023-12-14T09:42:37;12.70;92.50
10538;DHT22;5317;49.048;8.468;2023-12-14T09:45:07;12.80;92.50
10538;DHT22;5317;49.048;8.468;2023-12-14T09:47:35;12.80;92.30
10538;DHT22;5317;49.048;8.468;2023-12-14T09:50:04;12.90;92.40
10538;DHT22;5317;49.048;8.468;2023-12-14T09:52:31;12.90;92.40
10538;DHT22;5317;49.048;8.468;2023-12-14T09:54:59;13.00;92.40
10538;DHT22;5317;49.048;8.468;2023-12-14T09:57:29;13.00;92.20
10538;DHT22;5317;49.048;8.468;2023-12-14T09:59:56;13.00;92.10
10538;DHT22;5317;49.048;8.468;2023-12-14T10:02:25;13.10;92.00
10538;DHT22;5317;49.048;8.468;2023-12-14T10:04:52;13.10;92.00
10538;DHT22;5317;49.048;8.468;2023-12-14T10:07:22;13.20;92.00
10538;DHT22;5317;49.048;8.468;2023-12-14T10:09:49;13.10;91.70
10538;DHT22;5317;49.048;8.468;2023-12-14T10:12:16;13.10;91.80
10538;DHT22;5317;49.048;8.468;2023-12-14T10:14:43;13.10;91.90
10538;DHT22;5317;49.048;8.468;2023-12-14T10:17:16;13.20;91.90
10538;DHT22;5317;49.048;8.468;2023-12-14T10:19:43;13.20;91.70
10538;DHT22;5317;49.048;8.468;2023-12-14T10:22:10;13.20;91.70
10538;DHT22;5317;49.048;8.468;2023-12-14T10:24:39;13.20;91.80
10538;DHT22;5317;49.048;8.468;2023-12-14T10:27:07;13.10;91.90
10538;DHT22;5317;49.048;8.468;2023-12-14T10:29:34;13.20;91.90
10538;DHT22;5317;49.048;8.468;2023-12-14T10:32:03;13.30;91.70
10538;DHT22;5317;49.048;8.468;2023-12-14T10:34:32;13.20;91.80
10538;DHT22;5317;49.048;8.468;2023-12-14T10:37:00;13.30;91.90
10538;DHT22;5317;49.048;8.468;2023-12-14T10:39:29;13.20;91.80
10538;DHT22;5317;49.048;8.468;2023-12-14T10:41:58;13.20;91.90
10538;DHT22;5317;49.048;8.468;2023-12-14T10:44:30;13.30;91.90
10538;DHT22;5317;49.048;8.468;2023-12-14T10:47:02;13.40;91.90
10538;DHT22;5317;49.048;8.468;2023-12-14T10:49:31;13.50;91.90
10538;DHT22;5317;49.048;8.468;2023-12-14T10:52:00;13.50;91.60
10538;DHT22;5317;49.048;8.468;2023-12-14T10:54:31;13.50;91.70
10538;DHT22;5317;49.048;8.468;2023-12-14T10:57:00;13.50;91.70
10538;DHT22;5317;49.048;8.468;2023-12-14T10:59:31;13.60;91.70
10538;DHT22;5317;49.048;8.468;2023-12-14T11:01:58;13.60;91.70
10538;DHT22;5317;49.048;8.468;2023-12-14T11:04:26;13.60;91.70
10538;DHT22;5317;49.048;8.468;2023-12-14T11:06:53;13.60;91.50
10538;DHT22;5317;49.048;8.468;2023-12-14T11:09:23;13.50;91.70
10538;DHT22;5317;49.048;8.468;2023-12-14T11:11:56;13.50;91.70
10538;DHT22;5317;49.048;8.468;2023-12-14T11:14:27;13.40;91.40
10538;DHT22;5317;49.048;8.468;2023-12-14T11:16:55;13.30;91.70
10538;DHT22;5317;49.048;8.468;2023-12-14T11:19:28;13.30;91.90
10538;DHT22;5317;49.048;8.468;2023-12-14T11:22:11;13.50;92.00
10538;DHT22;5317;49.048;8.468;2023-12-14T11:24:42;13.60;92.00
10538;DHT22;5317;49.048;8.468;2023-12-14T11:27:12;13.60;91.90
10538;DHT22;5317;49.048;8.468;2023-12-14T11:29:40;13.70;91.70
10538;DHT22;5317;49.048;8.468;2023-12-14T11:32:07;13.60;91.60
10538;DHT22;5317;49.048;8.468;2023-12-14T11:34:35;13.60;91.70
10538;DHT22;5317;49.048;8.468;2023-12-14T11:37:01;13.70;91.70
10538;DHT22;5317;49.048;8.468;2023-12-14T11:39:30;13.70;91.70
10538;DHT22;5317;49.048;8.468;2023-12-14T11:42:01;13.80;91.70
10538;DHT22;5317;49.048;8.468;2023-12-14T11:44:28;13.80;91.60
10538;DHT22;5317;49.048;8.468;2023-12-14T11:46:57;13.90;91.60
10538;DHT22;5317;49.048;8.468;2023-12-14T11:49:24;13.90;91.50
10538;DHT22;5317;49.048;8.468;2023-12-14T11:51:52;13.90;91.40
10538;DHT22;5317;49.048;8.468;2023-12-14T11:54:19;14.00;91.50
10538;DHT22;5317;49.048;8.468;2023-12-14T11:56:47;14.00;91.50
10538;DHT22;5317;49.048;8.468;2023-12-14T11:59:18;14.00;91.40
10538;DHT22;5317;49.048;8.468;2023-12-14T12:02:06;14.00;91.40
10538;DHT22;5317;49.048;8.468;2023-12-14T12:04:33;14.00;91.50
10538;DHT22;5317;49.048;8.468;2023-12-14T12:07:02;14.00;91.40
10538;DHT22;5317;49.048;8.468;2023-12-14T12:09:34;14.00;91.30
10538;DHT22;5317;49.048;8.468;2023-12-14T12:12:04;14.00;91.40
10538;DHT22;5317;49.048;8.468;2023-12-14T12:14:31;14.00;91.40
10538;DHT22;5317;49.048;8.468;2023-12-14T12:16:58;14.00;91.40
10538;DHT22;5317;49.048;8.468;2023-12-14T12:19:27;14.00;91.30
10538;DHT22;5317;49.048;8.468;2023-12-14T12:21:54;14.00;91.30
10538;DHT22;5317;49.048;8.468;2023-12-14T12:24:21;13.90;91.20
10538;DHT22;5317;49.048;8.468;2023-12-14T12:26:47;13.80;91.40
10538;DHT22;5317;49.048;8.468;2023-12-14T12:29:15;13.80;91.30
10538;DHT22;5317;49.048;8.468;2023-12-14T12:31:42;13.90;91.40
10538;DHT22;5317;49.048;8.468;2023-12-14T12:34:10;13.90;91.40
10538;DHT22;5317;49.048;8.468;2023-12-14T12:36:39;13.90;91.30
10538;DHT22;5317;49.048;8.468;2023-12-14T12:39:06;13.80;91.20
10538;DHT22;5317;49.048;8.468;2023-12-14T12:41:34;13.80;91.30
10538;DHT22;5317;49.048;8.468;2023-12-14T12:44:03;13.80;91.40
10538;DHT22;5317;49.048;8.468;2023-12-14T12:46:32;13.90;91.40
10538;DHT22;5317;49.048;8.468;2023-12-14T12:49:00;13.90;91.40
10538;DHT22;5317;49.048;8.468;2023-12-14T12:51:27;13.90;91.30
10538;DHT22;5317;49.048;8.468;2023-12-14T12:53:57;13.90;91.40
10538;DHT22;5317;49.048;8.468;2023-12-14T12:56:25;13.90;91.30
10538;DHT22;5317;49.048;8.468;2023-12-14T12:58:52;13.90;91.30
10538;DHT22;5317;49.048;8.468;2023-12-14T13:01:19;14.00;91.20
10538;DHT22;5317;49.048;8.468;2023-12-14T13:03:51;13.90;91.00
10538;DHT22;5317;49.048;8.468;2023-12-14T13:06:18;13.90;91.00
10538;DHT22;5317;49.048;8.468;2023-12-14T13:08:45;13.90;91.10
10538;DHT22;5317;49.048;8.468;2023-12-14T13:11:13;14.00;91.10
10538;DHT22;5317;49.048;8.468;2023-12-14T13:13:40;13.90;90.80
10538;DHT22;5317;49.048;8.468;2023-12-14T13:16:09;14.00;91.00
10538;DHT22;5317;49.048;8.468;2023-12-14T13:18:36;14.70;90.50
10538;DHT22;5317;49.048;8.468;2023-12-14T13:21:03;14.70;90.20
10538;DHT22;5317;49.048;8.468;2023-12-14T13:23:30;14.80;90.10
10538;DHT22;5317;49.048;8.468;2023-12-14T13:25:58;14.80;90.00
10538;DHT22;5317;49.048;8.468;2023-12-14T13:28:26;14.70;89.20
10538;DHT22;5317;49.048;8.468;2023-12-14T13:30:53;14.50;89.10
10538;DHT22;5317;49.048;8.468;2023-12-14T13:33:20;14.40;89.60
10538;DHT22;5317;49.048;8.468;2023-12-14T13:35:47;14.30;89.50
10538;DHT22;5317;49.048;8.468;2023-12-14T13:38:14;14.20;89.70
10538;DHT22;5317;49.048;8.468;2023-12-14T13:40:41;14.10;90.00
10538;DHT22;5317;49.048;8.468;2023-12-14T13:43:08;14.00;90.30
10538;DHT22;5317;49.048;8.468;2023-12-14T13:45:38;14.00;90.30
10538;DHT22;5317;49.048;8.468;2023-12-14T13:48:05;13.90;90.40
10538;DHT22;5317;49.048;8.468;2023-12-14T13:50:33;13.80;90.60
10538;DHT22;5317;49.048;8.468;2023-12-14T13:53:00;13.80;91.00
10538;DHT22;5317;49.048;8.468;2023-12-14T13:55:27;13.70;90.80
10538;DHT22;5317;49.048;8.468;2023-12-14T13:57:54;13.70;90.80
10538;DHT22;5317;49.048;8.468;2023-12-14T14:00:23;13.70;90.80
10538;DHT22;5317;49.048;8.468;2023-12-14T14:02:52;13.70;91.00
10538;DHT22;5317;49.048;8.468;2023-12-14T14:05:19;13.60;90.90
10538;DHT22;5317;49.048;8.468;2023-12-14T14:07:46;13.50;91.00
10538;DHT22;5317;49.048;8.468;2023-12-14T14:10:14;13.60;91.20
10538;DHT22;5317;49.048;8.468;2023-12-14T14:12:40;13.60;91.10
10538;DHT22;5317;49.048;8.468;2023-12-14T14:15:08;13.60;91.00
10538;DHT22;5317;49.048;8.468;2023-12-14T14:17:35;13.70;91.20
10538;DHT22;5317;49.048;8.468;2023-12-14T14:20:05;13.70;91.10
10538;DHT22;5317;49.048;8.468;2023-12-14T14:22:32;13.70;91.30
10538;DHT22;5317;49.048;8.468;2023-12-14T14:24:59;13.70;90.80
10538;DHT22;5317;49.048;8.468;2023-12-14T14:27:26;13.80;90.90
10538;DHT22;5317;49.048;8.468;2023-12-14T14:29:54;13.70;90.80
10538;DHT22;5317;49.048;8.468;2023-12-14T14:32:22;13.70;90.80
10538;DHT22;5317;49.048;8.468;2023-12-14T14:34:49;13.80;90.90
10538;DHT22;5317;49.048;8.468;2023-12-14T14:37:17;13.80;90.80
10538;DHT22;5317;49.048;8.468;2023-12-14T14:39:44;13.80;90.60
10538;DHT22;5317;49.048;8.468;2023-12-14T14:42:11;13.70;90.60
10538;DHT22;5317;49.048;8.468;2023-12-14T14:44:39;13.70;90.80
10538;DHT22;5317;49.048;8.468;2023-12-14T14:47:06;13.60;90.90
10538;DHT22;5317;49.048;8.468;2023-12-14T14:49:33;13.60;91.00
10538;DHT22;5317;49.048;8.468;2023-12-14T14:52:00;13.50;91.00
10538;DHT22;5317;49.048;8.468;2023-12-14T14:54:28;13.60;91.10
10538;DHT22;5317;49.048;8.468;2023-12-14T14:56:55;13.60;91.10
10538;DHT22;5317;49.048;8.468;2023-12-14T14:59:22;13.60;91.00
10538;DHT22;5317;49.048;8.468;2023-12-14T15:01:49;13.60;91.00
10538;DHT22;5317;49.048;8.468;2023-12-14T15:04:16;13.50;90.90
10538;DHT22;5317;49.048;8.468;2023-12-14T15:06:43;13.50;91.10
10538;DHT22;5317;49.048;8.468;2023-12-14T15:09:10;13.50;91.10
10538;DHT22;5317;49.048;8.468;2023-12-14T15:11:39;13.50;91.00
10538;DHT22;5317;49.048;8.468;2023-12-14T15:14:07;13.60;91.00
10538;DHT22;5317;49.048;8.468;2023-12-14T15:16:34;13.60;91.00
10538;DHT22;5317;49.048;8.468;2023-12-14T15:19:01;13.50;90.90
10538;DHT22;5317;49.048;8.468;2023-12-14T15:21:28;13.50;91.10
10538;DHT22;5317;49.048;8.468;2023-12-14T15:23:55;13.40;91.10
10538;DHT22;5317;49.048;8.468;2023-12-14T15:26:22;13.10;90.00
10538;DHT22;5317;49.048;8.468;2023-12-14T15:28:50;13.00;90.20
10538;DHT22;5317;49.048;8.468;2023-12-14T15:31:17;13.00;90.20
10538;DHT22;5317;49.048;8.468;2023-12-14T15:33:44;13.10;90.30
10538;DHT22;5317;49.048;8.468;2023-12-14T15:36:11;13.10;89.10
10538;DHT22;5317;49.048;8.468;2023-12-14T15:38:38;13.10;88.80
10538;DHT22;5317;49.048;8.468;2023-12-14T15:41:06;13.00;88.10
10538;DHT22;5317;49.048;8.468;2023-12-14T15:43:33;13.00;88.90
10538;DHT22;5317;49.048;8.468;2023-12-14T15:46:01;13.00;88.60
10538;DHT22;5317;49.048;8.468;2023-12-14T15:48:28;13.10;89.10
10538;DHT22;5317;49.048;8.468;2023-12-14T15:50:55;13.10;87.50